sensor_id;sensor_type;location;lat;lon;timestamp;P1;durP1;ratioP1;P2;durP2;ratioP2
1995;SDS011;38556;47.068;15.408;2022-09-19T00:01:07;16.55;;;15.65;;
1995;SDS011;38556;47.068;15.408;2022-09-19T00:03:36;15.80;;;15.10;;
1995;SDS011;38556;47.068;15.408;2022-09-19T00:06:05;17.10;;;16.30;;
1995;SDS011;38556;47.068;15.408;2022-09-19T00:08:33;16.40;;;15.70;;
1995;SDS011;38556;47.068;15.408;2022-09-19T00:11:00;16.80;;;15.93;;
1995;SDS011;38556;47.068;15.408;2022-09-19T00:13:28;16.10;;;15.40;;
1995;SDS011;38556;47.068;15.408;2022-09-19T00:15:56;16.58;;;15.77;;
1995;SDS011;38556;47.068;15.408;2022-09-19T00:18:26;16.77;;;15.80;;
1995;SDS011;38556;47.068;15.408;2022-09-19T00:20:54;16.75;;;16.00;;
1995;SDS011;38556;47.068;15.408;2022-09-19T00:23:21;16.63;;;15.82;;
1995;SDS011;38556;47.068;15.408;2022-09-19T00:26:08;16.38;;;15.60;;
1995;SDS011;38556;47.068;15.408;2022-09-19T00:28:38;16.30;;;15.50;;
1995;SDS011;38556;47.068;15.408;2022-09-19T00:31:05;17.80;;;15.88;;
1995;SDS011;38556;47.068;15.408;2022-09-19T00:33:42;16.85;;;15.85;;
1995;SDS011;38556;47.068;15.408;2022-09-19T00:36:11;16.70;;;15.90;;
1995;SDS011;38556;47.068;15.408;2022-09-19T00:38:38;17.00;;;16.20;;
1995;SDS011;38556;47.068;15.408;2022-09-19T00:41:07;17.38;;;16.48;;
1995;SDS011;38556;47.068;15.408;2022-09-19T00:43:46;16.80;;;15.90;;
1995;SDS011;38556;47.068;15.408;2022-09-19T00:46:17;17.00;;;16.10;;
1995;SDS011;38556;47.068;15.408;2022-09-19T00:48:47;17.00;;;16.10;;
1995;SDS011;38556;47.068;15.408;2022-09-19T00:51:19;17.00;;;16.10;;
1995;SDS011;38556;47.068;15.408;2022-09-19T00:53:58;16.80;;;16.00;;
1995;SDS011;38556;47.068;15.408;2022-09-19T00:56:28;17.08;;;16.17;;
1995;SDS011;38556;47.068;15.408;2022-09-19T00:58:56;17.15;;;16.35;;
1995;SDS011;38556;47.068;15.408;2022-09-19T01:01:25;16.30;;;15.50;;
1995;SDS011;38556;47.068;15.408;2022-09-19T01:03:55;16.50;;;15.70;;
1995;SDS011;38556;47.068;15.408;2022-09-19T01:06:32;16.88;;;15.98;;
1995;SDS011;38556;47.068;15.408;2022-09-19T01:09:24;16.85;;;16.05;;
1995;SDS011;38556;47.068;15.408;2022-09-19T01:11:58;16.52;;;15.73;;
1995;SDS011;38556;47.068;15.408;2022-09-19T01:14:30;17.00;;;16.20;;
1995;SDS011;38556;47.068;15.408;2022-09-19T01:17:11;17.30;;;16.40;;
1995;SDS011;38556;47.068;15.408;2022-09-19T01:22:30;17.00;;;16.00;;
1995;SDS011;38556;47.068;15.408;2022-09-19T01:25:08;17.02;;;16.23;;
1995;SDS011;38556;47.068;15.408;2022-09-19T01:27:41;16.90;;;16.10;;
1995;SDS011;38556;47.068;15.408;2022-09-19T01:30:39;17.17;;;16.27;;
1995;SDS011;38556;47.068;15.408;2022-09-19T01:33:13;16.80;;;15.95;;
1995;SDS011;38556;47.068;15.408;2022-09-19T01:35:44;16.80;;;15.90;;
1995;SDS011;38556;47.068;15.408;2022-09-19T01:38:19;17.17;;;16.35;;
1995;SDS011;38556;47.068;15.408;2022-09-19T01:40:50;16.55;;;15.75;;
1995;SDS011;38556;47.068;15.408;2022-09-19T01:43:18;16.90;;;16.10;;
1995;SDS011;38556;47.068;15.408;2022-09-19T01:45:47;16.48;;;15.73;;
1995;SDS011;38556;47.068;15.408;2022-09-19T01:48:18;16.70;;;15.90;;
1995;SDS011;38556;47.068;15.408;2022-09-19T01:50:55;17.17;;;16.08;;
1995;SDS011;38556;47.068;15.408;2022-09-19T01:53:41;16.70;;;15.90;;
1995;SDS011;38556;47.068;15.408;2022-09-19T01:56:23;17.25;;;16.35;;
1995;SDS011;38556;47.068;15.408;2022-09-19T01:58:58;16.70;;;15.90;;
1995;SDS011;38556;47.068;15.408;2022-09-19T02:01:40;17.30;;;16.50;;
1995;SDS011;38556;47.068;15.408;2022-09-19T02:04:15;17.40;;;16.50;;
1995;SDS011;38556;47.068;15.408;2022-09-19T02:06:46;18.23;;;17.33;;
1995;SDS011;38556;47.068;15.408;2022-09-19T02:09:21;17.42;;;16.63;;
1995;SDS011;38556;47.068;15.408;2022-09-19T02:11:53;17.42;;;16.63;;
1995;SDS011;38556;47.068;15.408;2022-09-19T02:14:25;17.75;;;16.85;;
1995;SDS011;38556;47.068;15.408;2022-09-19T02:16:59;17.77;;;16.73;;
1995;SDS011;38556;47.068;15.408;2022-09-19T02:19:30;18.08;;;17.17;;
1995;SDS011;38556;47.068;15.408;2022-09-19T02:22:01;17.70;;;16.80;;
1995;SDS011;38556;47.068;15.408;2022-09-19T02:24:32;18.10;;;17.20;;
1995;SDS011;38556;47.068;15.408;2022-09-19T02:27:03;18.83;;;17.67;;
1995;SDS011;38556;47.068;15.408;2022-09-19T02:29:33;18.30;;;17.40;;
1995;SDS011;38556;47.068;15.408;2022-09-19T02:32:05;18.25;;;17.45;;
1995;SDS011;38556;47.068;15.408;2022-09-19T02:34:35;18.30;;;17.40;;
1995;SDS011;38556;47.068;15.408;2022-09-19T02:37:04;18.10;;;17.02;;
1995;SDS011;38556;47.068;15.408;2022-09-19T02:39:37;17.83;;;16.63;;
1995;SDS011;38556;47.068;15.408;2022-09-19T02:42:11;18.20;;;17.30;;
1995;SDS011;38556;47.068;15.408;2022-09-19T02:44:47;18.70;;;17.80;;
1995;SDS011;38556;47.068;15.408;2022-09-19T02:47:30;17.52;;;16.73;;
1995;SDS011;38556;47.068;15.408;2022-09-19T02:50:03;17.30;;;16.50;;
1995;SDS011;38556;47.068;15.408;2022-09-19T02:52:36;18.75;;;17.75;;
1995;SDS011;38556;47.068;15.408;2022-09-19T02:55:07;18.48;;;17.58;;
1995;SDS011;38556;47.068;15.408;2022-09-19T02:57:38;19.02;;;18.02;;
1995;SDS011;38556;47.068;15.408;2022-09-19T03:00:08;18.30;;;17.50;;
1995;SDS011;38556;47.068;15.408;2022-09-19T03:02:39;17.80;;;17.00;;
1995;SDS011;38556;47.068;15.408;2022-09-19T03:05:13;17.67;;;16.77;;
1995;SDS011;38556;47.068;15.408;2022-09-19T03:07:45;18.60;;;17.60;;
1995;SDS011;38556;47.068;15.408;2022-09-19T03:10:19;18.38;;;17.50;;
1995;SDS011;38556;47.068;15.408;2022-09-19T03:12:49;19.10;;;18.10;;
1995;SDS011;38556;47.068;15.408;2022-09-19T03:15:18;18.55;;;17.35;;
1995;SDS011;38556;47.068;15.408;2022-09-19T03:17:48;18.85;;;17.85;;
1995;SDS011;38556;47.068;15.408;2022-09-19T03:20:19;18.75;;;17.85;;
1995;SDS011;38556;47.068;15.408;2022-09-19T03:22:50;18.00;;;17.10;;
1995;SDS011;38556;47.068;15.408;2022-09-19T03:25:19;18.10;;;17.10;;
1995;SDS011;38556;47.068;15.408;2022-09-19T03:27:46;17.60;;;16.70;;
1995;SDS011;38556;47.068;15.408;2022-09-19T03:30:15;18.00;;;17.10;;
1995;SDS011;38556;47.068;15.408;2022-09-19T03:32:42;17.70;;;16.80;;
1995;SDS011;38556;47.068;15.408;2022-09-19T03:35:11;17.10;;;16.30;;
1995;SDS011;38556;47.068;15.408;2022-09-19T03:37:39;17.70;;;16.80;;
1995;SDS011;38556;47.068;15.408;2022-09-19T03:40:07;17.95;;;17.00;;
1995;SDS011;38556;47.068;15.408;2022-09-19T03:42:36;19.77;;;18.55;;
1995;SDS011;38556;47.068;15.408;2022-09-19T03:45:04;18.05;;;17.15;;
1995;SDS011;38556;47.068;15.408;2022-09-19T03:47:32;18.80;;;17.80;;
1995;SDS011;38556;47.068;15.408;2022-09-19T03:50:00;18.02;;;17.02;;
1995;SDS011;38556;47.068;15.408;2022-09-19T03:52:28;18.55;;;17.50;;
1995;SDS011;38556;47.068;15.408;2022-09-19T03:54:56;16.67;;;15.98;;
1995;SDS011;38556;47.068;15.408;2022-09-19T03:57:23;17.52;;;16.65;;
1995;SDS011;38556;47.068;15.408;2022-09-19T03:59:51;17.00;;;16.10;;
1995;SDS011;38556;47.068;15.408;2022-09-19T04:02:18;17.35;;;16.55;;
1995;SDS011;38556;47.068;15.408;2022-09-19T04:04:46;17.15;;;16.25;;
1995;SDS011;38556;47.068;15.408;2022-09-19T04:07:13;17.52;;;16.42;;
1995;SDS011;38556;47.068;15.408;2022-09-19T04:09:42;17.52;;;16.52;;
1995;SDS011;38556;47.068;15.408;2022-09-19T04:12:11;18.38;;;17.27;;
1995;SDS011;38556;47.068;15.408;2022-09-19T04:14:38;17.33;;;16.42;;
1995;SDS011;38556;47.068;15.408;2022-09-19T04:17:06;16.60;;;15.80;;
1995;SDS011;38556;47.068;15.408;2022-09-19T04:19:35;16.80;;;15.90;;
1995;SDS011;38556;47.068;15.408;2022-09-19T04:22:04;16.75;;;15.82;;
1995;SDS011;38556;47.068;15.408;2022-09-19T04:24:32;16.63;;;15.63;;
1995;SDS011;38556;47.068;15.408;2022-09-19T04:27:00;16.67;;;15.68;;
1995;SDS011;38556;47.068;15.408;2022-09-19T04:29:32;17.45;;;16.55;;
1995;SDS011;38556;47.068;15.408;2022-09-19T04:32:01;17.60;;;16.40;;
1995;SDS011;38556;47.068;15.408;2022-09-19T04:34:28;17.02;;;15.93;;
1995;SDS011;38556;47.068;15.408;2022-09-19T04:36:56;16.50;;;15.70;;
1995;SDS011;38556;47.068;15.408;2022-09-19T04:39:24;17.20;;;16.20;;
1995;SDS011;38556;47.068;15.408;2022-09-19T04:41:52;16.40;;;15.65;;
1995;SDS011;38556;47.068;15.408;2022-09-19T04:44:21;16.58;;;15.77;;
1995;SDS011;38556;47.068;15.408;2022-09-19T04:46:53;16.30;;;15.52;;
1995;SDS011;38556;47.068;15.408;2022-09-19T04:49:21;17.98;;;16.70;;
1995;SDS011;38556;47.068;15.408;2022-09-19T04:51:49;15.85;;;15.05;;
1995;SDS011;38556;47.068;15.408;2022-09-19T04:54:21;16.80;;;15.70;;
1995;SDS011;38556;47.068;15.408;2022-09-19T04:56:49;17.33;;;16.25;;
1995;SDS011;38556;47.068;15.408;2022-09-19T04:59:16;17.23;;;15.77;;
1995;SDS011;38556;47.068;15.408;2022-09-19T05:01:44;16.90;;;15.95;;
1995;SDS011;38556;47.068;15.408;2022-09-19T05:04:12;17.00;;;16.10;;
1995;SDS011;38556;47.068;15.408;2022-09-19T05:06:40;17.65;;;16.60;;
1995;SDS011;38556;47.068;15.408;2022-09-19T05:09:08;17.40;;;16.13;;
1995;SDS011;38556;47.068;15.408;2022-09-19T05:11:36;17.95;;;16.80;;
1995;SDS011;38556;47.068;15.408;2022-09-19T05:14:11;18.85;;;17.45;;
1995;SDS011;38556;47.068;15.408;2022-09-19T05:16:39;22.35;;;20.33;;
1995;SDS011;38556;47.068;15.408;2022-09-19T05:19:08;21.02;;;18.92;;
1995;SDS011;38556;47.068;15.408;2022-09-19T05:21:36;20.63;;;18.90;;
1995;SDS011;38556;47.068;15.408;2022-09-19T05:24:03;20.75;;;19.40;;
1995;SDS011;38556;47.068;15.408;2022-09-19T05:26:31;20.40;;;18.88;;
1995;SDS011;38556;47.068;15.408;2022-09-19T05:28:58;20.63;;;19.23;;
1995;SDS011;38556;47.068;15.408;2022-09-19T05:31:26;23.90;;;22.15;;
1995;SDS011;38556;47.068;15.408;2022-09-19T05:33:53;20.77;;;19.55;;
1995;SDS011;38556;47.068;15.408;2022-09-19T05:36:22;20.15;;;18.95;;
1995;SDS011;38556;47.068;15.408;2022-09-19T05:38:51;21.50;;;20.05;;
1995;SDS011;38556;47.068;15.408;2022-09-19T05:41:19;21.00;;;19.67;;
1995;SDS011;38556;47.068;15.408;2022-09-19T05:43:46;20.85;;;19.58;;
1995;SDS011;38556;47.068;15.408;2022-09-19T05:46:13;20.23;;;19.13;;
1995;SDS011;38556;47.068;15.408;2022-09-19T05:48:40;21.90;;;20.50;;
1995;SDS011;38556;47.068;15.408;2022-09-19T05:51:08;21.52;;;20.02;;
1995;SDS011;38556;47.068;15.408;2022-09-19T05:53:36;20.35;;;19.15;;
1995;SDS011;38556;47.068;15.408;2022-09-19T05:56:18;19.20;;;18.00;;
1995;SDS011;38556;47.068;15.408;2022-09-19T05:58:45;18.55;;;17.35;;
1995;SDS011;38556;47.068;15.408;2022-09-19T06:01:13;17.33;;;16.27;;
1995;SDS011;38556;47.068;15.408;2022-09-19T06:03:40;17.10;;;16.23;;
1995;SDS011;38556;47.068;15.408;2022-09-19T06:06:10;17.00;;;16.05;;
1995;SDS011;38556;47.068;15.408;2022-09-19T06:08:40;17.48;;;16.58;;
1995;SDS011;38556;47.068;15.408;2022-09-19T06:11:09;16.80;;;16.05;;
1995;SDS011;38556;47.068;15.408;2022-09-19T06:13:36;16.45;;;15.60;;
1995;SDS011;38556;47.068;15.408;2022-09-19T06:16:22;15.90;;;15.30;;
1995;SDS011;38556;47.068;15.408;2022-09-19T06:18:49;15.82;;;15.23;;
1995;SDS011;38556;47.068;15.408;2022-09-19T06:21:17;16.10;;;15.30;;
1995;SDS011;38556;47.068;15.408;2022-09-19T06:23:45;15.75;;;15.15;;
1995;SDS011;38556;47.068;15.408;2022-09-19T06:26:13;16.10;;;15.45;;
1995;SDS011;38556;47.068;15.408;2022-09-19T06:28:40;16.02;;;15.15;;
1995;SDS011;38556;47.068;15.408;2022-09-19T06:31:08;15.15;;;14.55;;
1995;SDS011;38556;47.068;15.408;2022-09-19T06:33:36;15.02;;;14.32;;
1995;SDS011;38556;47.068;15.408;2022-09-19T06:36:04;15.13;;;14.52;;
1995;SDS011;38556;47.068;15.408;2022-09-19T06:38:31;16.08;;;15.43;;
1995;SDS011;38556;47.068;15.408;2022-09-19T06:41:00;15.50;;;14.60;;
1995;SDS011;38556;47.068;15.408;2022-09-19T06:43:28;15.50;;;14.90;;
1995;SDS011;38556;47.068;15.408;2022-09-19T06:45:56;15.88;;;15.27;;
1995;SDS011;38556;47.068;15.408;2022-09-19T06:48:23;15.43;;;14.82;;
1995;SDS011;38556;47.068;15.408;2022-09-19T06:50:51;16.15;;;15.55;;
1995;SDS011;38556;47.068;15.408;2022-09-19T06:53:18;15.65;;;15.05;;
1995;SDS011;38556;47.068;15.408;2022-09-19T06:55:46;16.17;;;15.57;;
1995;SDS011;38556;47.068;15.408;2022-09-19T06:58:15;15.73;;;15.13;;
1995;SDS011;38556;47.068;15.408;2022-09-19T07:00:43;15.75;;;15.07;;
1995;SDS011;38556;47.068;15.408;2022-09-19T07:03:11;16.38;;;15.73;;
1995;SDS011;38556;47.068;15.408;2022-09-19T07:05:40;16.13;;;15.48;;
1995;SDS011;38556;47.068;15.408;2022-09-19T07:08:10;15.45;;;14.75;;
1995;SDS011;38556;47.068;15.408;2022-09-19T07:10:39;15.82;;;15.23;;
1995;SDS011;38556;47.068;15.408;2022-09-19T07:13:08;24.33;;;22.80;;
1995;SDS011;38556;47.068;15.408;2022-09-19T07:15:40;18.00;;;17.20;;
1995;SDS011;38556;47.068;15.408;2022-09-19T07:18:08;17.38;;;16.63;;
1995;SDS011;38556;47.068;15.408;2022-09-19T07:20:39;16.02;;;15.43;;
1995;SDS011;38556;47.068;15.408;2022-09-19T07:23:09;16.17;;;15.52;;
1995;SDS011;38556;47.068;15.408;2022-09-19T07:25:39;15.52;;;14.93;;
1995;SDS011;38556;47.068;15.408;2022-09-19T07:28:10;15.90;;;15.20;;
1995;SDS011;38556;47.068;15.408;2022-09-19T07:30:40;16.00;;;15.30;;
1995;SDS011;38556;47.068;15.408;2022-09-19T07:33:10;16.50;;;15.70;;
1995;SDS011;38556;47.068;15.408;2022-09-19T07:35:40;16.27;;;15.48;;
1995;SDS011;38556;47.068;15.408;2022-09-19T07:38:08;15.80;;;15.10;;
1995;SDS011;38556;47.068;15.408;2022-09-19T07:40:41;16.08;;;15.43;;
1995;SDS011;38556;47.068;15.408;2022-09-19T07:43:09;16.27;;;15.68;;
1995;SDS011;38556;47.068;15.408;2022-09-19T07:45:41;16.02;;;15.32;;
1995;SDS011;38556;47.068;15.408;2022-09-19T07:48:11;15.70;;;15.10;;
1995;SDS011;38556;47.068;15.408;2022-09-19T07:50:39;16.30;;;15.60;;
1995;SDS011;38556;47.068;15.408;2022-09-19T07:53:07;16.13;;;15.52;;
1995;SDS011;38556;47.068;15.408;2022-09-19T07:55:38;16.38;;;15.73;;
1995;SDS011;38556;47.068;15.408;2022-09-19T07:58:08;16.00;;;15.40;;
1995;SDS011;38556;47.068;15.408;2022-09-19T08:00:37;16.55;;;15.95;;
1995;SDS011;38556;47.068;15.408;2022-09-19T08:03:08;15.90;;;15.30;;
1995;SDS011;38556;47.068;15.408;2022-09-19T08:05:37;16.00;;;15.40;;
1995;SDS011;38556;47.068;15.408;2022-09-19T08:08:06;16.27;;;15.57;;
1995;SDS011;38556;47.068;15.408;2022-09-19T08:10:35;16.93;;;16.23;;
1995;SDS011;38556;47.068;15.408;2022-09-19T08:13:03;16.20;;;15.60;;
1995;SDS011;38556;47.068;15.408;2022-09-19T08:15:32;15.90;;;15.30;;
1995;SDS011;38556;47.068;15.408;2022-09-19T08:18:02;16.33;;;15.73;;
1995;SDS011;38556;47.068;15.408;2022-09-19T08:20:32;16.10;;;15.50;;
1995;SDS011;38556;47.068;15.408;2022-09-19T08:23:03;16.80;;;16.10;;
1995;SDS011;38556;47.068;15.408;2022-09-19T08:25:31;16.58;;;15.93;;
1995;SDS011;38556;47.068;15.408;2022-09-19T08:27:59;17.00;;;16.30;;
1995;SDS011;38556;47.068;15.408;2022-09-19T08:30:29;16.13;;;15.43;;
1995;SDS011;38556;47.068;15.408;2022-09-19T08:32:57;16.13;;;15.53;;
1995;SDS011;38556;47.068;15.408;2022-09-19T08:35:26;15.60;;;15.00;;
1995;SDS011;38556;47.068;15.408;2022-09-19T08:37:57;15.80;;;15.20;;
1995;SDS011;38556;47.068;15.408;2022-09-19T08:40:27;15.50;;;14.90;;
1995;SDS011;38556;47.068;15.408;2022-09-19T08:42:57;15.50;;;14.90;;
1995;SDS011;38556;47.068;15.408;2022-09-19T08:45:37;14.90;;;14.30;;
1995;SDS011;38556;47.068;15.408;2022-09-19T08:48:18;15.70;;;15.10;;
1995;SDS011;38556;47.068;15.408;2022-09-19T08:50:52;15.67;;;15.07;;
1995;SDS011;38556;47.068;15.408;2022-09-19T08:53:24;16.07;;;15.37;;
1995;SDS011;38556;47.068;15.408;2022-09-19T08:55:58;16.23;;;15.43;;
1995;SDS011;38556;47.068;15.408;2022-09-19T08:58:27;15.70;;;15.10;;
1995;SDS011;38556;47.068;15.408;2022-09-19T09:01:00;15.80;;;15.20;;
1995;SDS011;38556;47.068;15.408;2022-09-19T09:03:34;15.90;;;15.23;;
1995;SDS011;38556;47.068;15.408;2022-09-19T09:06:13;15.37;;;14.77;;
1995;SDS011;38556;47.068;15.408;2022-09-19T09:08:52;15.43;;;14.83;;
1995;SDS011;38556;47.068;15.408;2022-09-19T09:11:26;16.33;;;15.73;;
1995;SDS011;38556;47.068;15.408;2022-09-19T09:14:03;15.90;;;15.20;;
1995;SDS011;38556;47.068;15.408;2022-09-19T09:16:43;15.10;;;14.50;;
1995;SDS011;38556;47.068;15.408;2022-09-19T09:19:20;15.07;;;14.47;;
1995;SDS011;38556;47.068;15.408;2022-09-19T09:22:03;15.87;;;15.27;;
1995;SDS011;38556;47.068;15.408;2022-09-19T09:24:39;15.20;;;14.60;;
1995;SDS011;38556;47.068;15.408;2022-09-19T09:27:10;16.27;;;15.57;;
1995;SDS011;38556;47.068;15.408;2022-09-19T09:29:41;16.20;;;15.43;;
1995;SDS011;38556;47.068;15.408;2022-09-19T09:32:13;14.87;;;14.37;;
1995;SDS011;38556;47.068;15.408;2022-09-19T09:34:47;15.00;;;14.37;;
1995;SDS011;38556;47.068;15.408;2022-09-19T09:37:19;15.00;;;14.40;;
1995;SDS011;38556;47.068;15.408;2022-09-19T09:39:53;15.20;;;14.60;;
1995;SDS011;38556;47.068;15.408;2022-09-19T09:42:36;15.50;;;14.90;;
1995;SDS011;38556;47.068;15.408;2022-09-19T09:45:13;15.83;;;15.23;;
1995;SDS011;38556;47.068;15.408;2022-09-19T09:47:47;15.43;;;14.77;;
1995;SDS011;38556;47.068;15.408;2022-09-19T09:50:34;15.30;;;14.70;;
1995;SDS011;38556;47.068;15.408;2022-09-19T09:53:15;15.70;;;15.10;;
1995;SDS011;38556;47.068;15.408;2022-09-19T09:55:55;15.00;;;14.40;;
1995;SDS011;38556;47.068;15.408;2022-09-19T10:01:35;15.80;;;15.10;;
1995;SDS011;38556;47.068;15.408;2022-09-19T10:04:28;14.98;;;14.45;;
1995;SDS011;38556;47.068;15.408;2022-09-19T10:07:02;15.77;;;15.18;;
1995;SDS011;38556;47.068;15.408;2022-09-19T10:09:38;15.80;;;15.20;;
1995;SDS011;38556;47.068;15.408;2022-09-19T10:12:12;15.82;;;15.23;;
1995;SDS011;38556;47.068;15.408;2022-09-19T10:14:40;15.30;;;14.70;;
1995;SDS011;38556;47.068;15.408;2022-09-19T10:17:09;14.73;;;14.23;;
1995;SDS011;38556;47.068;15.408;2022-09-19T10:19:39;15.90;;;15.30;;
1995;SDS011;38556;47.068;15.408;2022-09-19T10:22:08;15.45;;;14.85;;
1995;SDS011;38556;47.068;15.408;2022-09-19T10:24:40;15.90;;;15.30;;
1995;SDS011;38556;47.068;15.408;2022-09-19T10:27:10;15.43;;;14.83;;
1995;SDS011;38556;47.068;15.408;2022-09-19T10:29:47;15.55;;;14.95;;
1995;SDS011;38556;47.068;15.408;2022-09-19T10:32:16;15.50;;;14.90;;
1995;SDS011;38556;47.068;15.408;2022-09-19T10:34:46;15.40;;;14.80;;
1995;SDS011;38556;47.068;15.408;2022-09-19T10:37:15;15.40;;;14.80;;
1995;SDS011;38556;47.068;15.408;2022-09-19T10:39:44;16.23;;;15.63;;
1995;SDS011;38556;47.068;15.408;2022-09-19T10:42:24;15.40;;;14.80;;
1995;SDS011;38556;47.068;15.408;2022-09-19T10:45:00;15.35;;;14.75;;
1995;SDS011;38556;47.068;15.408;2022-09-19T10:47:29;15.60;;;15.00;;
1995;SDS011;38556;47.068;15.408;2022-09-19T10:50:02;16.30;;;15.70;;
1995;SDS011;38556;47.068;15.408;2022-09-19T10:52:31;16.00;;;15.40;;
1995;SDS011;38556;47.068;15.408;2022-09-19T10:54:59;16.10;;;15.50;;
1995;SDS011;38556;47.068;15.408;2022-09-19T10:57:40;15.70;;;15.10;;
1995;SDS011;38556;47.068;15.408;2022-09-19T11:00:22;16.23;;;15.53;;
1995;SDS011;38556;47.068;15.408;2022-09-19T11:02:55;15.90;;;15.30;;
1995;SDS011;38556;47.068;15.408;2022-09-19T11:05:24;15.40;;;14.80;;
1995;SDS011;38556;47.068;15.408;2022-09-19T11:07:54;15.50;;;14.90;;
1995;SDS011;38556;47.068;15.408;2022-09-19T11:10:33;15.93;;;15.33;;
1995;SDS011;38556;47.068;15.408;2022-09-19T11:13:09;15.90;;;15.30;;
1995;SDS011;38556;47.068;15.408;2022-09-19T11:18:30;15.80;;;15.20;;
1995;SDS011;38556;47.068;15.408;2022-09-19T11:21:06;16.38;;;15.70;;
1995;SDS011;38556;47.068;15.408;2022-09-19T11:23:44;16.60;;;15.90;;
1995;SDS011;38556;47.068;15.408;2022-09-19T11:26:20;15.93;;;15.33;;
1995;SDS011;38556;47.068;15.408;2022-09-19T11:29:00;15.67;;;15.07;;
1995;SDS011;38556;47.068;15.408;2022-09-19T11:31:35;16.43;;;15.83;;
1995;SDS011;38556;47.068;15.408;2022-09-19T11:34:11;17.23;;;16.43;;
1995;SDS011;38556;47.068;15.408;2022-09-19T11:36:47;16.83;;;15.90;;
1995;SDS011;38556;47.068;15.408;2022-09-19T11:39:30;16.50;;;15.70;;
1995;SDS011;38556;47.068;15.408;2022-09-19T11:42:02;16.10;;;15.50;;
1995;SDS011;38556;47.068;15.408;2022-09-19T11:44:48;15.90;;;15.30;;
1995;SDS011;38556;47.068;15.408;2022-09-19T11:47:21;16.40;;;15.80;;
1995;SDS011;38556;47.068;15.408;2022-09-19T11:50:13;16.13;;;15.53;;
1995;SDS011;38556;47.068;15.408;2022-09-19T11:52:49;15.50;;;14.90;;
1995;SDS011;38556;47.068;15.408;2022-09-19T11:55:33;15.37;;;14.77;;
1995;SDS011;38556;47.068;15.408;2022-09-19T11:58:10;15.90;;;15.30;;
1995;SDS011;38556;47.068;15.408;2022-09-19T12:00:48;16.20;;;15.60;;
1995;SDS011;38556;47.068;15.408;2022-09-19T12:06:19;15.93;;;15.33;;
1995;SDS011;38556;47.068;15.408;2022-09-19T12:09:05;16.10;;;15.50;;
1995;SDS011;38556;47.068;15.408;2022-09-19T12:11:39;15.30;;;14.70;;
1995;SDS011;38556;47.068;15.408;2022-09-19T12:14:09;16.00;;;15.40;;
1995;SDS011;38556;47.068;15.408;2022-09-19T12:16:44;15.97;;;15.17;;
1995;SDS011;38556;47.068;15.408;2022-09-19T12:19:16;15.83;;;15.23;;
1995;SDS011;38556;47.068;15.408;2022-09-19T12:21:50;16.00;;;15.40;;
1995;SDS011;38556;47.068;15.408;2022-09-19T12:24:22;15.60;;;15.00;;
1995;SDS011;38556;47.068;15.408;2022-09-19T12:27:09;14.97;;;14.40;;
1995;SDS011;38556;47.068;15.408;2022-09-19T12:29:42;15.63;;;15.03;;
1995;SDS011;38556;47.068;15.408;2022-09-19T12:32:17;16.03;;;15.43;;
1995;SDS011;38556;47.068;15.408;2022-09-19T12:34:54;15.60;;;15.00;;
1995;SDS011;38556;47.068;15.408;2022-09-19T12:37:28;16.43;;;15.83;;
1995;SDS011;38556;47.068;15.408;2022-09-19T12:39:59;16.03;;;15.43;;
1995;SDS011;38556;47.068;15.408;2022-09-19T12:42:31;15.83;;;15.13;;
1995;SDS011;38556;47.068;15.408;2022-09-19T12:45:12;14.93;;;14.43;;
1995;SDS011;38556;47.068;15.408;2022-09-19T12:47:56;15.80;;;15.20;;
1995;SDS011;38556;47.068;15.408;2022-09-19T12:50:32;15.80;;;15.20;;
1995;SDS011;38556;47.068;15.408;2022-09-19T12:53:06;15.90;;;15.30;;
1995;SDS011;38556;47.068;15.408;2022-09-19T12:55:45;16.30;;;15.60;;
1995;SDS011;38556;47.068;15.408;2022-09-19T12:58:23;16.00;;;15.40;;
1995;SDS011;38556;47.068;15.408;2022-09-19T13:00:55;15.93;;;15.33;;
1995;SDS011;38556;47.068;15.408;2022-09-19T13:03:33;16.07;;;15.47;;
1995;SDS011;38556;47.068;15.408;2022-09-19T13:06:03;15.73;;;15.03;;
1995;SDS011;38556;47.068;15.408;2022-09-19T13:08:39;15.77;;;15.10;;
1995;SDS011;38556;47.068;15.408;2022-09-19T13:11:13;15.80;;;15.20;;
1995;SDS011;38556;47.068;15.408;2022-09-19T13:13:47;15.80;;;15.20;;
1995;SDS011;38556;47.068;15.408;2022-09-19T13:16:19;16.33;;;15.63;;
1995;SDS011;38556;47.068;15.408;2022-09-19T13:18:55;16.00;;;15.40;;
1995;SDS011;38556;47.068;15.408;2022-09-19T13:21:41;15.00;;;14.40;;
1995;SDS011;38556;47.068;15.408;2022-09-19T13:24:34;15.70;;;15.10;;
1995;SDS011;38556;47.068;15.408;2022-09-19T13:27:20;14.80;;;14.30;;
1995;SDS011;38556;47.068;15.408;2022-09-19T13:29:48;14.70;;;14.10;;
1995;SDS011;38556;47.068;15.408;2022-09-19T13:35:13;14.90;;;14.30;;
1995;SDS011;38556;47.068;15.408;2022-09-19T13:37:46;15.13;;;14.53;;
1995;SDS011;38556;47.068;15.408;2022-09-19T13:40:35;16.43;;;15.63;;
1995;SDS011;38556;47.068;15.408;2022-09-19T13:43:20;15.27;;;14.67;;
1995;SDS011;38556;47.068;15.408;2022-09-19T13:45:53;15.80;;;14.90;;
1995;SDS011;38556;47.068;15.408;2022-09-19T13:48:33;14.90;;;14.30;;
1995;SDS011;38556;47.068;15.408;2022-09-19T13:51:06;14.80;;;14.10;;
1995;SDS011;38556;47.068;15.408;2022-09-19T13:53:38;14.70;;;14.20;;
1995;SDS011;38556;47.068;15.408;2022-09-19T13:56:20;15.40;;;14.80;;
1995;SDS011;38556;47.068;15.408;2022-09-19T13:59:08;15.10;;;14.50;;
1995;SDS011;38556;47.068;15.408;2022-09-19T14:01:52;14.33;;;13.83;;
1995;SDS011;38556;47.068;15.408;2022-09-19T14:04:22;15.50;;;14.90;;
1995;SDS011;38556;47.068;15.408;2022-09-19T14:07:16;16.10;;;15.50;;
1995;SDS011;38556;47.068;15.408;2022-09-19T14:09:49;15.27;;;14.57;;
1995;SDS011;38556;47.068;15.408;2022-09-19T14:18:45;15.03;;;14.53;;
1995;SDS011;38556;47.068;15.408;2022-09-19T15:41:00;56.33;;;32.17;;
1995;SDS011;38556;47.068;15.408;2022-09-19T15:43:32;64.27;;;34.40;;
1995;SDS011;38556;47.068;15.408;2022-09-19T15:46:02;55.43;;;30.17;;
1995;SDS011;38556;47.068;15.408;2022-09-19T15:48:51;55.83;;;30.87;;
1995;SDS011;38556;47.068;15.408;2022-09-19T15:51:24;54.97;;;31.57;;
1995;SDS011;38556;47.068;15.408;2022-09-19T15:53:56;51.10;;;30.27;;
1995;SDS011;38556;47.068;15.408;2022-09-19T15:56:24;55.37;;;31.10;;
1995;SDS011;38556;47.068;15.408;2022-09-19T15:58:52;57.10;;;32.00;;
1995;SDS011;38556;47.068;15.408;2022-09-19T16:01:22;53.33;;;30.40;;
1995;SDS011;38556;47.068;15.408;2022-09-19T16:03:59;55.67;;;28.83;;
1995;SDS011;38556;47.068;15.408;2022-09-19T16:06:30;58.20;;;31.43;;
1995;SDS011;38556;47.068;15.408;2022-09-19T16:09:31;53.50;;;29.20;;
1995;SDS011;38556;47.068;15.408;2022-09-19T16:12:02;55.50;;;30.53;;
1995;SDS011;38556;47.068;15.408;2022-09-19T16:14:53;54.57;;;30.57;;
1995;SDS011;38556;47.068;15.408;2022-09-19T16:17:23;53.17;;;31.40;;
1995;SDS011;38556;47.068;15.408;2022-09-19T16:19:52;51.03;;;29.07;;
1995;SDS011;38556;47.068;15.408;2022-09-19T16:22:21;56.03;;;30.00;;
1995;SDS011;38556;47.068;15.408;2022-09-19T16:24:51;49.37;;;29.17;;
1995;SDS011;38556;47.068;15.408;2022-09-19T16:27:26;55.50;;;30.40;;
1995;SDS011;38556;47.068;15.408;2022-09-19T16:29:57;48.03;;;28.00;;
1995;SDS011;38556;47.068;15.408;2022-09-19T16:32:27;55.13;;;30.40;;